Time;durP1;ratioP1;P1;durP2;ratioP2;P2;SDS_P1;SDS_P2;PMS_P1;PMS_P2;Temp;Humidity;BMP_temperature;BMP_pressure;BME280_temperature;BME280_humidity;BME280_pressure;Samples;Min_cycle;Max_cycle;Signal;HPM_P1;HPM_P2
2021/11/10 00:02:16;;;;;;;17.13;8.43;;;;;;;4.35;71.89;101474.81;8602527;33;21522;-74
2021/11/10 00:07:20;;;;;;;13.77;8.60;;;;;;;4.23;71.98;101485.06;8602770;33;20621;-73
2021/11/10 00:12:23;;;;;;;14.63;8.57;;;;;;;4.30;72.39;101475.91;8601215;33;20855;-74
2021/11/10 00:17:26;;;;;;;12.40;8.25;;;;;;;4.29;72.41;101474.19;8601386;33;20221;-74
2021/11/10 00:22:31;;;;;;;14.70;8.57;;;;;;;4.36;72.12;101475.66;8601772;33;20177;-74
2021/11/10 00:27:34;;;;;;;14.05;8.30;;;;;;;4.21;71.82;101468.28;8601098;33;21456;-74
2021/11/10 00:32:37;;;;;;;13.65;8.63;;;;;;;4.04;71.82;101469.78;8600029;33;20193;-74
2021/11/10 00:37:41;;;;;;;12.32;7.95;;;;;;;3.90;72.03;101458.78;8599831;33;20932;-74
2021/11/10 00:42:44;;;;;;;15.65;8.95;;;;;;;3.91;72.61;101466.69;8601357;33;20220;-74
2021/11/10 00:47:47;;;;;;;12.27;8.13;;;;;;;3.98;72.48;101459.38;8601955;33;20254;-74
2021/11/10 00:52:52;;;;;;;13.32;7.72;;;;;;;4.01;72.23;101456.59;8601088;33;20260;-74
2021/11/10 00:57:56;;;;;;;13.90;7.82;;;;;;;4.01;72.21;101445.09;8601708;33;20184;-74
2021/11/10 01:02:59;;;;;;;10.45;7.45;;;;;;;3.95;72.03;101436.41;8600123;33;20189;-74
2021/11/10 01:08:05;;;;;;;8.95;6.60;;;;;;;3.97;71.96;101431.03;8599682;33;21990;-73
2021/11/10 01:13:08;;;;;;;11.30;6.72;;;;;;;3.99;71.76;101423.00;8599422;33;20553;-73
2021/11/10 01:18:13;;;;;;;11.40;6.68;;;;;;;3.99;71.68;101423.88;8599410;33;20185;-73
2021/11/10 01:23:18;;;;;;;11.13;6.45;;;;;;;4.00;71.56;101433.56;8599123;33;21255;-74
2021/11/10 01:28:21;;;;;;;9.63;6.55;;;;;;;3.98;71.32;101423.91;8599491;33;20193;-72
2021/11/10 01:33:25;;;;;;;11.07;6.85;;;;;;;3.95;71.16;101432.91;8599091;33;20812;-73
2021/11/10 01:38:30;;;;;;;10.70;5.93;;;;;;;3.85;71.44;101423.50;8603512;33;20208;-74
2021/11/10 01:43:34;;;;;;;13.40;6.78;;;;;;;3.71;71.73;101421.34;8603680;33;20185;-73
2021/11/10 01:48:37;;;;;;;7.85;6.07;;;;;;;3.67;72.06;101409.09;8604061;33;22182;-73
2021/11/10 01:53:43;;;;;;;9.65;5.85;;;;;;;3.69;71.91;101399.28;8603146;33;20288;-73
2021/11/10 01:58:46;;;;;;;11.32;6.68;;;;;;;3.68;71.72;101392.25;8604025;33;20184;-73
2021/11/10 02:03:50;;;;;;;11.38;6.47;;;;;;;3.69;71.66;101383.31;8603775;33;20181;-73
2021/11/10 02:08:58;;;;;;;10.20;6.40;;;;;;;3.63;71.74;101388.88;8603988;33;20212;-73
2021/11/10 02:14:07;;;;;;;9.98;5.90;;;;;;;3.55;71.83;101391.81;8603043;33;20208;-73
2021/11/10 02:19:14;;;;;;;12.07;6.22;;;;;;;3.53;71.78;101376.84;8603998;33;20189;-73
2021/11/10 02:24:25;;;;;;;10.45;6.32;;;;;;;3.42;72.01;101375.41;8603785;33;20205;-74
2021/11/10 02:29:31;;;;;;;11.32;6.45;;;;;;;3.36;72.17;101366.81;8604971;33;20708;-73
2021/11/10 02:34:37;;;;;;;9.38;6.88;;;;;;;3.32;72.15;101365.16;8602415;33;20299;-73
2021/11/10 02:39:42;;;;;;;9.00;5.90;;;;;;;3.35;72.14;101370.41;8603242;33;20469;-73
2021/11/10 02:44:48;;;;;;;7.47;5.78;;;;;;;3.25;72.47;101372.50;8601720;33;20196;-74
2021/11/10 02:49:51;;;;;;;10.32;5.97;;;;;;;3.27;72.13;101368.00;8603342;33;20199;-74
2021/11/10 02:54:55;;;;;;;10.82;5.65;;;;;;;3.28;72.31;101359.09;8600950;33;20706;-75
2021/11/10 02:59:58;;;;;;;11.68;6.05;;;;;;;3.24;72.27;101361.00;8602809;33;21895;-74
2021/11/10 03:05:01;;;;;;;11.30;6.80;;;;;;;3.20;72.29;101359.38;8601185;33;20702;-74
2021/11/10 03:10:08;;;;;;;9.75;6.43;;;;;;;3.16;72.34;101363.06;8601904;33;20185;-74
2021/11/10 03:15:15;;;;;;;8.18;5.85;;;;;;;3.08;72.45;101349.19;8601905;33;20285;-74
2021/11/10 03:20:19;;;;;;;11.93;6.35;;;;;;;3.08;72.58;101366.91;8601784;33;20245;-75
2021/11/10 03:25:23;;;;;;;9.45;6.35;;;;;;;2.99;72.95;101368.97;8601809;33;20205;-73
2021/11/10 03:30:28;;;;;;;10.68;6.20;;;;;;;3.00;72.75;101360.06;8602254;33;20173;-73
2021/11/10 03:35:36;;;;;;;12.38;6.13;;;;;;;2.94;72.84;101364.72;8607639;33;20765;-74
2021/11/10 03:40:47;;;;;;;9.90;6.57;;;;;;;2.92;72.78;101366.56;8612158;33;20213;-74
2021/11/10 03:45:53;;;;;;;11.27;5.68;;;;;;;2.92;72.83;101369.22;8600583;33;20701;-74
2021/11/10 03:50:56;;;;;;;12.25;6.68;;;;;;;2.93;73.17;101369.16;8600747;33;20661;-74
2021/11/10 03:56:00;;;;;;;9.07;6.22;;;;;;;2.89;73.03;101361.34;8599962;33;21909;-75
2021/11/10 04:01:06;;;;;;;9.93;6.40;;;;;;;2.85;73.20;101352.59;8599809;33;20193;-74
2021/11/10 04:06:11;;;;;;;10.70;6.47;;;;;;;2.82;73.39;101348.25;8599849;33;20189;-74
2021/11/10 04:11:19;;;;;;;10.30;6.60;;;;;;;2.80;73.43;101346.63;8600710;33;20764;-74
2021/11/10 04:16:24;;;;;;;16.00;6.95;;;;;;;2.79;73.25;101344.84;8600444;33;20193;-75
2021/11/10 04:21:31;;;;;;;15.75;7.70;;;;;;;2.74;73.27;101345.03;8600287;33;20486;-74
2021/11/10 04:26:41;;;;;;;11.50;7.20;;;;;;;2.77;73.55;101347.56;8600042;33;20208;-74
2021/11/10 04:31:53;;;;;;;13.98;7.40;;;;;;;2.69;73.68;101352.28;8599690;33;20193;-74
2021/11/10 04:36:58;;;;;;;13.63;6.35;;;;;;;2.61;73.72;101359.63;8599358;33;20189;-74
2021/11/10 04:42:08;;;;;;;11.80;6.90;;;;;;;2.54;73.73;101347.44;8599498;33;20689;-74
2021/11/10 04:47:13;;;;;;;14.82;6.78;;;;;;;2.48;73.88;101361.75;8599254;33;20263;-74
2021/11/10 04:52:17;;;;;;;14.27;7.22;;;;;;;2.52;74.02;101357.19;8599473;33;20649;-74
2021/11/10 04:57:21;;;;;;;11.95;6.65;;;;;;;2.52;73.84;101349.25;8599116;33;20618;-74
2021/11/10 05:02:28;;;;;;;13.35;6.88;;;;;;;2.59;73.94;101350.81;8598754;33;20186;-73
2021/11/10 05:07:33;;;;;;;10.73;6.78;;;;;;;2.50;73.55;101349.31;8598851;33;20193;-73
2021/11/10 05:12:38;;;;;;;12.48;6.72;;;;;;;2.46;73.53;101344.16;8603368;33;20705;-74
2021/11/10 05:17:41;;;;;;;12.98;7.10;;;;;;;2.37;73.53;101347.97;8603623;33;20465;-74
2021/11/10 05:22:48;;;;;;;12.63;6.70;;;;;;;2.45;73.74;101361.84;8603457;33;20208;-75
2021/11/10 05:27:52;;;;;;;8.93;5.80;;;;;;;2.53;73.70;101353.66;8604460;33;20189;-74
2021/11/10 05:32:55;;;;;;;11.15;6.20;;;;;;;2.51;73.90;101350.16;8604117;33;20906;-74
2021/11/10 05:37:58;;;;;;;7.60;5.38;;;;;;;2.42;73.56;101348.69;8604458;33;20146;-74
2021/11/10 05:43:03;;;;;;;9.93;6.40;;;;;;;2.32;73.58;101344.56;8595023;33;20769;-74
2021/11/10 05:48:06;;;;;;;8.55;6.38;;;;;;;2.26;74.09;101335.03;8604798;33;20642;-74
2021/11/10 05:53:09;;;;;;;11.00;6.07;;;;;;;2.23;73.85;101328.97;8604793;33;20942;-74
2021/11/10 05:58:15;;;;;;;11.23;6.30;;;;;;;2.21;73.91;101344.06;8604693;33;20316;-74
2021/11/10 06:03:18;;;;;;;12.63;6.10;;;;;;;2.24;74.11;101339.50;8605021;33;20674;-74
2021/11/10 06:08:21;;;;;;;9.85;6.03;;;;;;;2.28;74.00;101332.34;8603835;33;20366;-74
2021/11/10 06:13:42;;;;;;;12.25;6.35;;;;;;;2.24;74.10;101323.59;8604408;33;20455;-74
2021/11/10 06:18:46;;;;;;;9.02;6.43;;;;;;;2.25;74.06;101308.56;8604967;33;20195;-74
2021/11/10 06:23:49;;;;;;;11.05;6.72;;;;;;;2.24;73.78;101314.78;8603977;33;20803;-75
2021/11/10 06:28:54;;;;;;;10.30;5.75;;;;;;;2.19;73.98;101354.69;8602431;33;20138;-74
2021/11/10 06:33:57;;;;;;;12.48;6.10;;;;;;;2.21;73.98;101354.66;8603103;33;20235;-74
2021/11/10 06:39:00;;;;;;;8.85;6.07;;;;;;;2.09;74.14;101377.97;8604017;33;20189;-74
2021/11/10 06:44:05;;;;;;;12.57;6.72;;;;;;;1.98;74.61;101384.53;8603531;33;20690;-74
2021/11/10 06:49:08;;;;;;;12.25;7.10;;;;;;;1.94;74.79;101383.72;8602413;33;20130;-74
2021/11/10 06:54:13;;;;;;;16.05;7.32;;;;;;;1.97;75.05;101374.81;8602566;33;20230;-74
2021/11/10 06:59:18;;;;;;;16.48;8.18;;;;;;;2.08;74.97;101378.88;8604502;33;20193;-74
2021/11/10 07:04:23;;;;;;;12.60;7.10;;;;;;;2.16;74.51;101371.56;8603756;33;20227;-75
2021/11/10 07:09:26;;;;;;;12.02;7.13;;;;;;;2.19;74.56;101381.19;8602234;33;20688;-75
2021/11/10 07:14:30;;;;;;;18.67;9.25;;;;;;;2.24;74.31;101368.69;8602156;33;20238;-75
2021/11/10 07:19:34;;;;;;;11.02;5.72;;;;;;;2.40;74.87;101372.59;8602186;33;20577;-75
2021/11/10 07:24:38;;;;;;;23.42;13.05;;;;;;;2.95;74.70;101380.59;8599845;33;20181;-75
2021/11/10 07:29:42;;;;;;;11.93;7.85;;;;;;;3.07;72.60;101381.94;8601745;33;20193;-76
2021/11/10 07:34:45;;;;;;;10.45;6.63;;;;;;;3.30;72.17;101373.22;8600316;33;20154;-75
2021/11/10 07:39:48;;;;;;;10.65;6.93;;;;;;;3.50;70.52;101375.16;8600557;33;20146;-75
2021/11/10 07:44:58;;;;;;;13.07;6.85;;;;;;;3.32;70.66;101373.13;8600568;33;20789;-75
2021/11/10 07:50:01;;;;;;;11.30;7.50;;;;;;;3.40;70.80;101376.38;8598160;33;20177;-74
2021/11/10 07:55:05;;;;;;;12.88;7.50;;;;;;;3.64;70.49;101372.00;8598661;33;20189;-75
2021/11/10 08:00:14;;;;;;;14.70;7.20;;;;;;;3.68;69.40;101382.47;8600373;33;22674;-75
2021/11/10 08:05:18;;;;;;;12.00;8.23;;;;;;;3.37;69.85;101390.66;8601271;33;20773;-74
2021/11/10 08:10:21;;;;;;;12.45;7.80;;;;;;;3.41;69.88;101397.59;8602035;33;20579;-75
2021/11/10 08:15:25;;;;;;;15.27;7.68;;;;;;;3.23;70.21;101401.75;8601308;33;20192;-75
2021/11/10 08:20:28;;;;;;;11.73;7.20;;;;;;;3.08;70.74;101391.66;8602173;33;20791;-74
2021/11/10 08:25:32;;;;;;;13.40;7.85;;;;;;;3.10;70.83;101399.56;8601672;33;20223;-74
2021/11/10 08:30:36;;;;;;;14.52;7.65;;;;;;;3.24;71.79;101392.03;8601035;33;20189;-75
2021/11/10 08:35:40;;;;;;;12.90;8.38;;;;;;;4.40;69.21;101389.50;8601687;33;20152;-75
2021/11/10 08:40:43;;;;;;;13.10;7.32;;;;;;;4.80;66.83;101387.91;8601841;33;20230;-75
2021/11/10 08:45:51;;;;;;;15.90;7.63;;;;;;;5.47;64.46;101381.56;8603805;33;20211;-72
2021/11/10 08:50:56;;;;;;;16.58;7.75;;;;;;;5.80;63.64;101376.50;8607608;33;21728;-72
2021/11/10 08:55:59;;;;;;;12.95;7.47;;;;;;;6.08;62.29;101365.44;8605499;33;20192;-73
2021/11/10 09:01:04;;;;;;;13.20;7.55;;;;;;;6.38;61.66;101357.78;8606534;33;20167;-73
2021/11/10 09:06:07;;;;;;;12.20;7.00;;;;;;;6.91;61.30;101350.81;8605247;33;20267;-73
2021/11/10 09:11:10;;;;;;;14.45;6.93;;;;;;;7.87;59.33;101354.69;8605753;33;20185;-74
2021/11/10 09:16:15;;;;;;;14.20;6.63;;;;;;;8.52;57.04;101352.00;8605110;33;20430;-73
2021/11/10 09:21:18;;;;;;;13.02;6.40;;;;;;;8.51;56.69;101364.53;8605674;33;20284;-74
2021/11/10 09:26:22;;;;;;;12.23;6.57;;;;;;;8.30;57.57;101371.91;8605082;33;20161;-73
2021/11/10 09:31:28;;;;;;;11.38;6.93;;;;;;;7.81;58.63;101379.09;8605510;33;20138;-74
2021/11/10 09:36:31;;;;;;;12.15;7.43;;;;;;;6.94;60.97;101379.13;8604848;33;20189;-73
2021/11/10 09:41:35;;;;;;;10.35;7.13;;;;;;;6.27;63.03;101391.25;8604186;33;20780;-74
2021/11/10 09:46:40;;;;;;;14.68;7.85;;;;;;;6.68;63.70;101399.09;8604394;33;20900;-74
2021/11/10 09:51:46;;;;;;;14.52;8.20;;;;;;;7.03;61.37;101386.72;8602116;33;20558;-74
2021/11/10 09:56:51;;;;;;;12.80;7.75;;;;;;;6.49;61.97;101385.78;8603445;33;20682;-74
2021/11/10 10:01:56;;;;;;;15.77;8.02;;;;;;;6.18;63.22;101393.44;8604593;33;21454;-74
2021/11/10 10:07:03;;;;;;;12.45;7.63;;;;;;;6.77;62.25;101395.97;8603988;33;20215;-75
2021/11/10 10:12:08;;;;;;;14.45;8.65;;;;;;;8.08;60.04;101374.06;8604398;33;20157;-74
2021/11/10 10:17:34;;;;;;;13.98;8.27;;;;;;;8.58;57.49;101363.25;8605829;33;20136;-75
2021/11/10 10:22:36;;;;;;;13.45;8.70;;;;;;;9.45;56.22;101375.13;8603129;33;20712;-74
2021/11/10 10:27:53;;;;;;;13.35;8.35;;;;;;;10.37;53.11;101372.94;8603792;33;20174;-74
2021/11/10 10:33:01;;;;;;;11.80;8.45;;;;;;;10.79;52.09;101359.47;8603907;33;20239;-74
2021/11/10 10:38:06;;;;;;;15.25;6.97;;;;;;;11.01;50.88;101348.16;8604262;33;20185;-74
2021/11/10 10:43:09;;;;;;;9.00;6.13;;;;;;;10.91;50.45;101349.72;8604553;33;20284;-74
2021/11/10 10:48:16;;;;;;;9.65;5.70;;;;;;;10.04;52.15;101350.91;8603807;33;20187;-74
2021/11/10 10:53:33;;;;;;;8.77;5.20;;;;;;;9.80;51.88;101335.38;8603377;33;20252;-73
2021/11/10 10:58:39;;;;;;;9.75;5.53;;;;;;;9.80;52.36;101324.66;8604060;33;20185;-73
2021/11/10 11:03:50;;;;;;;11.93;5.20;;;;;;;10.17;51.21;101339.31;8603575;33;20555;-74
2021/11/10 11:08:53;;;;;;;9.98;5.25;;;;;;;9.78;52.94;101331.94;8601222;33;20304;-74
2021/11/10 11:14:00;;;;;;;10.00;4.72;;;;;;;10.16;51.65;101308.03;8602726;33;20264;-74
2021/11/10 11:19:16;;;;;;;7.72;4.93;;;;;;;10.10;53.22;101315.66;8602643;33;20185;-75
2021/11/10 11:24:40;;;;;;;12.43;6.55;;;;;;;11.41;51.28;101321.22;8602859;33;21137;-75
2021/11/10 11:29:46;;;;;;;11.85;6.97;;;;;;;11.96;50.10;101320.00;8602672;33;21084;-75
2021/11/10 11:34:53;;;;;;;10.02;6.82;;;;;;;12.48;49.44;101305.44;8601194;33;21624;-73
2021/11/10 11:40:01;;;;;;;11.98;7.20;;;;;;;12.22;49.14;101304.63;8601820;33;20227;-73
2021/11/10 11:45:07;;;;;;;11.85;6.80;;;;;;;13.64;47.40;101303.72;8601259;33;20191;-73
2021/11/10 11:50:12;;;;;;;10.90;6.97;;;;;;;15.18;43.18;101305.41;8602270;33;22017;-75
2021/11/10 11:55:21;;;;;;;11.45;6.53;;;;;;;14.58;43.39;101306.94;8602098;33;20338;-75
2021/11/10 12:00:25;;;;;;;8.32;6.32;;;;;;;14.52;43.32;101304.75;8600606;33;21610;-76
2021/11/10 12:05:30;;;;;;;10.30;5.28;;;;;;;13.61;43.71;101303.97;8601789;33;20184;-74
2021/11/10 12:10:43;;;;;;;7.80;4.72;;;;;;;14.04;43.15;101287.00;8601955;33;20193;-75
2021/11/10 12:16:17;;;;;;;8.02;5.10;;;;;;;14.63;41.25;101282.22;8603865;33;20455;-74
2021/11/10 12:21:33;;;;;;;7.32;4.88;;;;;;;13.72;43.07;101289.63;8601385;33;20188;-75
2021/11/10 12:27:08;;;;;;;10.05;5.38;;;;;;;13.38;43.55;101294.97;8600830;33;20173;-75
2021/11/10 12:32:13;;;;;;;9.27;5.50;;;;;;;14.58;42.92;101285.28;8602190;33;20185;-75
2021/11/10 12:37:30;;;;;;;7.53;5.40;;;;;;;14.56;41.53;101281.84;8599616;33;20439;-76
2021/11/10 12:42:44;;;;;;;10.70;5.63;;;;;;;13.87;42.51;101274.84;8600932;33;20153;-75
2021/11/10 12:47:50;;;;;;;8.55;5.82;;;;;;;12.67;45.00;101271.69;8600898;33;20280;-75
2021/11/10 12:52:56;;;;;;;11.93;6.72;;;;;;;12.67;45.66;101263.59;8601152;33;21390;-75
2021/11/10 12:58:01;;;;;;;12.60;7.00;;;;;;;12.07;46.87;101251.91;8599583;33;21521;-75
2021/11/10 13:03:06;;;;;;;15.80;7.10;;;;;;;11.76;48.28;101253.28;8599493;33;20224;-75
2021/11/10 13:08:17;;;;;;;10.55;5.80;;;;;;;11.51;47.60;101244.28;8601833;33;20196;-75
2021/11/10 13:13:20;;;;;;;8.02;5.05;;;;;;;11.21;48.70;101252.69;8600375;33;20208;-75
2021/11/10 13:18:25;;;;;;;12.90;6.10;;;;;;;10.65;49.76;101252.06;8600702;33;20216;-74
2021/11/10 13:23:32;;;;;;;12.13;6.85;;;;;;;10.39;51.12;101243.91;8599564;33;20267;-75
2021/11/10 13:28:35;;;;;;;10.65;5.75;;;;;;;10.51;51.33;101242.25;8600698;33;20189;-75
2021/11/10 13:33:40;;;;;;;12.52;6.30;;;;;;;10.07;51.90;101236.16;8602415;33;20530;-73
2021/11/10 13:38:48;;;;;;;10.25;6.13;;;;;;;9.94;52.68;101228.03;8603529;33;20193;-75
2021/11/10 13:43:54;;;;;;;13.52;6.18;;;;;;;9.82;52.78;101219.88;8604390;33;20242;-75
2021/11/10 13:49:10;;;;;;;8.00;5.93;;;;;;;9.80;52.78;101217.31;8604866;33;20154;-75
2021/11/10 13:54:16;;;;;;;10.77;6.05;;;;;;;9.73;53.40;101216.81;8604358;33;20184;-74
2021/11/10 13:59:23;;;;;;;12.60;7.40;;;;;;;9.55;54.11;101218.03;8604142;33;20250;-74
2021/11/10 14:04:30;;;;;;;10.75;5.93;;;;;;;9.77;53.74;101224.72;8604001;33;20244;-74
2021/11/10 14:09:37;;;;;;;14.98;7.07;;;;;;;10.30;52.74;101225.72;8603146;33;20197;-74
2021/11/10 14:14:40;;;;;;;10.35;6.22;;;;;;;10.69;51.73;101215.94;8583808;33;20675;-75
2021/11/10 14:19:43;;;;;;;12.32;6.75;;;;;;;10.79;51.43;101225.94;8603779;33;20855;-74
2021/11/10 14:24:47;;;;;;;10.95;6.55;;;;;;;10.97;50.78;101226.53;8602398;33;20145;-75
2021/11/10 14:30:07;;;;;;;14.43;7.28;;;;;;;10.54;51.59;101228.59;8599325;33;20622;-75
2021/11/10 14:35:12;;;;;;;14.25;7.07;;;;;;;10.03;52.71;101229.25;8602966;33;20165;-74
2021/11/10 14:40:28;;;;;;;13.15;7.55;;;;;;;9.81;53.57;101224.38;8604069;33;20185;-75
2021/11/10 14:45:31;;;;;;;12.63;7.40;;;;;;;9.84;53.84;101234.91;8603532;33;20146;-75
2021/11/10 14:50:35;;;;;;;14.38;7.07;;;;;;;9.59;54.46;101237.47;8603682;33;20195;-75
2021/11/10 14:55:42;;;;;;;13.43;8.05;;;;;;;9.34;55.28;101249.72;8603051;33;20189;-74
2021/11/10 15:00:52;;;;;;;15.48;7.32;;;;;;;9.06;55.85;101248.75;8602464;33;20162;-75
2021/11/10 15:05:58;;;;;;;13.52;7.70;;;;;;;8.96;56.01;101252.94;8600036;33;20739;-74
2021/11/10 15:11:03;;;;;;;12.73;6.93;;;;;;;8.81;56.47;101252.06;8602584;33;20239;-75
2021/11/10 15:16:07;;;;;;;14.70;7.45;;;;;;;8.67;57.05;101268.09;8601434;33;20201;-75
2021/11/10 15:21:13;;;;;;;13.65;8.48;;;;;;;8.40;57.66;101273.22;8594594;33;20221;-74
2021/11/10 15:26:18;;;;;;;13.45;7.97;;;;;;;8.27;58.30;101272.19;8600690;33;20960;-73
2021/11/10 15:31:21;;;;;;;12.88;6.30;;;;;;;8.16;59.46;101280.81;8601362;33;20638;-75
2021/11/10 15:36:24;;;;;;;14.88;7.68;;;;;;;7.92;61.01;101273.22;8601578;33;20234;-76
2021/11/10 15:41:31;;;;;;;16.70;7.60;;;;;;;7.72;62.39;101279.69;8600341;33;20693;-74
2021/11/10 15:46:36;;;;;;;15.45;6.55;;;;;;;7.53;62.70;101294.13;8600393;33;20160;-75
2021/11/10 15:51:39;;;;;;;16.75;8.00;;;;;;;7.44;62.33;101291.00;8601659;33;21116;-75
2021/11/10 15:56:46;;;;;;;15.98;8.52;;;;;;;7.26;62.96;101289.31;8600913;33;20221;-75
2021/11/10 16:01:49;;;;;;;12.80;7.82;;;;;;;7.23;62.73;101286.81;8601613;33;21443;-75
2021/11/10 16:06:53;;;;;;;13.18;7.28;;;;;;;7.20;62.68;101285.16;8601590;33;20776;-74
2021/11/10 16:11:58;;;;;;;13.45;7.40;;;;;;;7.20;63.17;101290.50;8604080;33;20283;-74
2021/11/10 16:17:01;;;;;;;14.27;7.28;;;;;;;7.15;63.65;101291.69;8601763;33;20570;-74
2021/11/10 16:22:04;;;;;;;17.05;8.88;;;;;;;7.04;64.02;101300.25;8602708;33;20241;-75
2021/11/10 16:27:11;;;;;;;23.33;10.07;;;;;;;7.00;64.05;101298.69;8600353;33;20641;-74
2021/11/10 16:37:35;;;;;;;20.27;10.20;;;;;;;7.11;64.20;101303.50;8597888;33;20200;-75
2021/11/10 16:42:40;;;;;;;18.02;9.18;;;;;;;7.12;63.97;101308.75;8600518;33;20586;-75
2021/11/10 16:47:44;;;;;;;18.88;10.73;;;;;;;6.93;64.77;101321.31;8599198;33;20680;-75
2021/11/10 16:52:47;;;;;;;22.25;12.60;;;;;;;6.93;65.20;101315.97;8600361;33;20184;-75
2021/11/10 16:57:52;;;;;;;22.33;11.50;;;;;;;6.94;65.10;101317.69;8599937;33;20718;-75
2021/11/10 17:02:55;;;;;;;20.25;10.93;;;;;;;6.89;65.04;101312.59;8599357;33;20864;-75
2021/11/10 17:07:58;;;;;;;28.15;16.08;;;;;;;6.83;65.23;101310.22;8602605;33;20580;-75
2021/11/10 17:13:02;;;;;;;28.95;15.00;;;;;;;6.79;65.32;101285.44;8603573;33;20234;-75
2021/11/10 17:18:06;;;;;;;22.83;13.35;;;;;;;6.70;65.79;101296.63;8603574;33;20193;-75
2021/11/10 17:23:09;;;;;;;27.70;15.85;;;;;;;6.60;66.22;101303.34;8604440;33;20234;-75
2021/11/10 17:28:14;;;;;;;30.58;14.77;;;;;;;6.55;66.58;101300.91;8604005;33;20566;-75
2021/11/10 17:33:17;;;;;;;24.95;13.45;;;;;;;6.43;66.88;101308.66;8604677;33;20455;-75
2021/11/10 17:38:21;;;;;;;26.92;13.50;;;;;;;6.36;67.04;101319.66;8604127;33;21942;-75
2021/11/10 17:43:26;;;;;;;22.67;13.05;;;;;;;6.24;67.59;101308.69;8603793;33;20197;-75
2021/11/10 17:48:29;;;;;;;20.50;11.43;;;;;;;6.21;67.90;101315.03;8603575;33;20193;-75
2021/11/10 17:53:32;;;;;;;18.52;11.85;;;;;;;6.17;67.60;101297.44;8602767;33;20185;-75
2021/11/10 17:58:39;;;;;;;37.50;18.13;;;;;;;6.04;68.15;101298.97;8600325;33;20215;-75
2021/11/10 18:03:42;;;;;;;36.65;17.33;;;;;;;6.06;68.23;101310.41;8603643;33;20185;-74
2021/11/10 18:08:45;;;;;;;23.83;13.65;;;;;;;6.09;67.99;101311.16;8603619;33;20153;-76
2021/11/10 18:13:50;;;;;;;25.90;15.82;;;;;;;6.03;68.10;101313.25;8602078;33;20250;-75
2021/11/10 18:18:53;;;;;;;40.88;20.90;;;;;;;5.85;68.28;101312.31;8603198;33;20193;-75
2021/11/10 18:24:00;;;;;;;31.60;16.52;;;;;;;5.79;68.56;101297.47;8604004;33;20193;-75
2021/11/10 18:29:24;;;;;;;26.08;13.18;;;;;;;5.69;68.74;101315.69;8603159;33;20272;-75
2021/11/10 18:34:27;;;;;;;28.17;13.32;;;;;;;5.52;69.07;101307.59;8599741;33;20185;-75
2021/11/10 18:39:31;;;;;;;22.27;13.07;;;;;;;5.36;69.17;101310.06;8589639;33;20449;-75
2021/11/10 18:44:38;;;;;;;20.45;12.23;;;;;;;5.31;69.71;101319.22;8601842;33;20201;-75
2021/11/10 18:49:41;;;;;;;27.60;13.73;;;;;;;5.16;70.41;101326.94;8603208;33;20180;-75
2021/11/10 18:54:44;;;;;;;23.17;12.00;;;;;;;5.18;69.77;101332.19;8602436;33;20950;-75
2021/11/10 18:59:49;;;;;;;28.27;13.60;;;;;;;5.09;70.18;101314.81;8602455;33;20189;-75
2021/11/10 19:04:58;;;;;;;28.90;15.30;;;;;;;5.01;70.66;101312.47;8602454;33;20188;-75
2021/11/10 19:20:43;;;;;;;62.33;27.02;;;;;;;4.77;71.02;101318.81;8590302;33;20426;-75
2021/11/10 19:25:46;;;;;;;42.95;22.05;;;;;;;4.72;71.22;101313.69;8602372;33;20185;-75
2021/11/10 19:30:50;;;;;;;40.85;21.33;;;;;;;4.64;71.34;101305.16;8602325;33;20242;-75
2021/11/10 19:35:53;;;;;;;40.72;17.73;;;;;;;4.50;71.39;101315.50;8602107;33;20195;-74
2021/11/10 19:40:57;;;;;;;31.38;17.92;;;;;;;4.38;71.60;101324.84;8601261;33;20626;-75
2021/11/10 19:46:01;;;;;;;27.65;15.15;;;;;;;4.38;71.85;101319.53;8601127;33;20201;-75
2021/11/10 19:51:05;;;;;;;26.35;16.67;;;;;;;4.31;72.29;101323.38;8601101;33;20769;-75
2021/11/10 19:56:08;;;;;;;33.08;18.65;;;;;;;4.35;72.29;101312.53;8595729;33;20169;-75
2021/11/10 20:01:16;;;;;;;27.30;15.50;;;;;;;4.38;72.39;101309.75;8597242;33;20248;-75
2021/11/10 20:06:21;;;;;;;28.92;16.25;;;;;;;4.27;72.68;101313.78;8601497;33;20185;-74
2021/11/10 20:11:24;;;;;;;26.42;15.27;;;;;;;4.23;73.54;101309.50;8601456;33;20185;-74
2021/11/10 20:16:29;;;;;;;27.30;15.55;;;;;;;4.14;74.35;101321.34;8600621;33;20161;-75
2021/11/10 20:21:32;;;;;;;30.10;15.20;;;;;;;4.00;74.79;101329.88;8601652;33;20419;-75
2021/11/10 20:26:36;;;;;;;29.17;17.40;;;;;;;3.96;74.87;101336.25;8600534;33;20234;-75
2021/11/10 20:31:40;;;;;;;31.92;18.98;;;;;;;3.92;74.82;101329.31;8600547;33;20185;-74
2021/11/10 20:36:43;;;;;;;29.33;17.67;;;;;;;3.94;75.14;101336.28;8599401;33;21752;-75
2021/11/10 20:41:47;;;;;;;31.05;20.55;;;;;;;3.86;74.83;101324.22;8600304;33;20252;-75
2021/11/10 20:46:51;;;;;;;29.00;17.70;;;;;;;3.72;74.89;101320.28;8599377;33;20238;-75
2021/11/10 20:51:54;;;;;;;31.27;17.80;;;;;;;3.75;75.01;101308.69;8599642;33;21769;-74
2021/11/10 20:56:58;;;;;;;26.92;16.92;;;;;;;3.71;74.93;101312.41;8599999;33;20215;-75
2021/11/10 21:02:02;;;;;;;25.02;15.73;;;;;;;3.60;74.92;101310.13;8600779;33;20875;-75
2021/11/10 21:07:06;;;;;;;36.50;19.10;;;;;;;3.58;75.03;101327.06;8600403;33;21617;-75
2021/11/10 21:12:09;;;;;;;28.20;16.77;;;;;;;3.59;75.12;101328.78;8600512;33;20199;-75
2021/11/10 21:17:14;;;;;;;27.83;16.48;;;;;;;3.61;75.20;101325.16;8599730;33;20223;-74
2021/11/10 21:22:18;;;;;;;28.25;17.40;;;;;;;3.47;75.13;101335.41;8599956;33;20158;-75
2021/11/10 21:27:21;;;;;;;23.27;15.98;;;;;;;3.42;75.62;101332.06;8599821;33;20181;-75
2021/11/10 21:32:25;;;;;;;23.85;15.82;;;;;;;3.48;75.68;101331.81;8599710;33;20689;-75
2021/11/10 21:37:28;;;;;;;22.52;15.10;;;;;;;3.50;76.10;101324.69;8598905;33;20136;-74
2021/11/10 21:42:31;;;;;;;21.75;14.85;;;;;;;3.52;75.88;101324.63;8598416;33;20157;-75
2021/11/10 21:47:36;;;;;;;27.42;14.77;;;;;;;3.44;75.74;101325.78;8597430;33;20216;-74
2021/11/10 21:52:39;;;;;;;24.02;13.73;;;;;;;3.34;75.76;101326.16;8601121;33;20193;-74
2021/11/10 21:57:43;;;;;;;21.65;14.13;;;;;;;3.33;76.16;101322.63;8602653;33;20456;-74
2021/11/10 22:02:49;;;;;;;28.45;14.90;;;;;;;3.30;75.89;101314.78;8603097;33;20288;-74
2021/11/10 22:07:53;;;;;;;27.33;15.70;;;;;;;3.28;75.74;101311.31;8602083;33;20396;-75
2021/11/10 22:12:57;;;;;;;26.25;15.20;;;;;;;3.22;75.73;101292.94;8603593;33;20591;-74
2021/11/10 22:18:02;;;;;;;21.95;14.70;;;;;;;3.17;75.91;101305.50;8604332;33;20244;-75
2021/11/10 22:23:08;;;;;;;27.75;15.20;;;;;;;3.10;75.76;101302.22;8602766;33;20246;-75
2021/11/10 22:28:11;;;;;;;19.63;13.80;;;;;;;3.16;75.67;101309.97;8601970;33;20177;-74
2021/11/10 22:33:16;;;;;;;29.15;14.35;;;;;;;3.07;75.81;101304.97;8601430;33;20142;-74
2021/11/10 22:38:19;;;;;;;21.35;13.50;;;;;;;3.04;75.49;101313.03;8603109;33;20220;-75
2021/11/10 22:43:22;;;;;;;23.17;13.70;;;;;;;3.01;75.87;101306.03;8602620;33;20662;-74
2021/11/10 22:48:26;;;;;;;20.60;13.70;;;;;;;3.01;75.53;101307.84;8603046;33;20185;-74
2021/11/10 22:53:29;;;;;;;22.50;13.48;;;;;;;3.00;75.77;101317.59;8602748;33;20466;-75
2021/11/10 22:58:32;;;;;;;22.05;13.75;;;;;;;3.12;75.30;101324.25;8602867;33;20437;-75
2021/11/10 23:03:37;;;;;;;20.35;12.73;;;;;;;3.22;75.41;101319.50;8601817;33;20142;-75
2021/11/10 23:08:40;;;;;;;24.73;14.63;;;;;;;3.32;75.45;101318.25;8600755;33;20254;-74
2021/11/10 23:13:43;;;;;;;28.35;16.88;;;;;;;3.40;75.31;101304.66;8601471;33;20721;-75
2021/11/10 23:18:49;;;;;;;27.90;15.82;;;;;;;3.44;75.23;101314.28;8602171;33;20750;-75
2021/11/10 23:23:56;;;;;;;23.73;13.60;;;;;;;3.52;75.15;101312.22;8601661;33;20197;-74
2021/11/10 23:28:59;;;;;;;25.48;13.68;;;;;;;3.53;75.02;101308.63;8601220;33;20227;-74
2021/11/10 23:34:04;;;;;;;26.05;15.07;;;;;;;3.67;74.96;101321.38;8600502;33;20638;-75
2021/11/10 23:39:07;;;;;;;23.13;13.63;;;;;;;3.71;74.86;101326.53;8601165;33;20204;-74
2021/11/10 23:44:10;;;;;;;21.42;13.23;;;;;;;3.75;74.83;101331.75;8600667;33;20443;-74
2021/11/10 23:49:14;;;;;;;25.77;15.15;;;;;;;3.73;74.74;101322.03;8601461;33;20452;-74